Time;durP1;ratioP1;P1;durP2;ratioP2;P2;SDS_P1;SDS_P2;PMS_P1;PMS_P2;Temp;Humidity;BMP_temperature;BMP_pressure;BME280_temperature;BME280_humidity;BME280_pressure;Samples;Min_cycle;Max_cycle;Signal;HPM_P1;HPM_P2
2023/08/08 00:00:47;;;;;;;;;;;;;;;17.28;54.98;100543.81;4989741;28;6844;-74
2023/08/08 00:03:13;;;;;;;;;;;;;;;17.26;55.30;100531.69;4974109;28;6880;-74
2023/08/08 00:05:38;;;;;;;;;;;;;;;17.27;55.34;100538.63;4990162;28;7037;-72
2023/08/08 00:08:04;;;;;;;;;;;;;;;17.26;55.32;100534.28;4981742;28;6772;-75
2023/08/08 00:10:30;;;;;;;;;;;;;;;17.24;55.00;100529.06;4984545;28;7167;-73
2023/08/08 00:12:55;;;;;;;;;;;;;;;17.23;54.98;100527.31;4993714;28;6959;-74
2023/08/08 00:15:21;;;;;;;;;;;;;;;17.24;55.10;100522.97;4985043;28;6780;-75
2023/08/08 00:17:46;;;;;;;;;;;;;;;17.24;54.97;100512.63;4995242;28;6780;-74
2023/08/08 00:20:12;;;;;;;;;;;;;;;17.21;55.39;100516.03;4966381;28;6956;-73
2023/08/08 00:22:38;;;;;;;;;;;;;;;17.21;55.64;100513.44;4984462;28;6804;-73
2023/08/08 00:25:03;;;;;;;;;;;;;;;17.20;55.25;100516.88;4973117;28;6852;-72
2023/08/08 00:27:29;;;;;;;;;;;;;;;17.18;55.20;100513.34;4975321;28;7027;-74
2023/08/08 00:29:55;;;;;;;;;;;;;;;17.17;55.36;100511.63;4972948;28;7187;-72
2023/08/08 00:32:20;;;;;;;;;;;;;;;17.16;55.16;100508.16;4976750;28;6772;-74
2023/08/08 00:34:46;;;;;;;;;;;;;;;17.14;55.29;100506.38;4989987;28;6771;-74
2023/08/08 00:37:11;;;;;;;;;;;;;;;17.13;55.71;100497.72;4994056;28;6759;-74
2023/08/08 00:39:37;;;;;;;;;;;;;;;17.14;55.47;100498.59;4983858;28;6950;-74
2023/08/08 00:42:02;;;;;;;;;;;;;;;17.14;55.16;100490.84;4998686;28;6937;-72
2023/08/08 00:44:28;;;;;;;;;;;;;;;17.12;55.39;100483.03;4979694;28;6816;-73
2023/08/08 00:46:54;;;;;;;;;;;;;;;17.12;55.97;100487.34;4994624;28;6868;-74
2023/08/08 00:49:20;;;;;;;;;;;;;;;17.11;55.76;100480.41;4978837;28;7142;-75
2023/08/08 00:51:46;;;;;;;;;;;;;;;17.08;55.78;100476.91;4991897;28;6931;-74
2023/08/08 00:54:13;;;;;;;;;;;;;;;17.08;56.04;100487.25;4994404;28;6883;-74
2023/08/08 00:56:38;;;;;;;;;;;;;;;17.05;55.53;100484.59;4983616;28;7303;-74
2023/08/08 00:59:04;;;;;;;;;;;;;;;17.06;55.96;100488.94;4981546;28;6784;-75
2023/08/08 01:01:29;;;;;;;;;;;;;;;17.03;56.19;100488.00;4967776;28;6964;-72
2023/08/08 01:03:55;;;;;;;;;;;;;;;17.00;56.12;100483.66;4992513;28;6836;-73
2023/08/08 01:06:39;;;;;;;;;;;;;;;16.96;55.97;100489.53;4993367;28;7122;-73
2023/08/08 01:09:13;;;;;;;;;;;;;;;16.96;56.28;100486.94;5002832;28;6820;-75
2023/08/08 01:11:39;;;;;;;;;;;;;;;16.93;56.64;100484.31;4989826;28;7003;-74
2023/08/08 01:14:08;;;;;;;;;;;;;;;16.93;56.59;100486.91;4985464;28;7050;-74
2023/08/08 01:16:34;;;;;;;;;;;;;;;16.90;56.33;100474.75;4998536;28;7297;-74
2023/08/08 01:19:00;;;;;;;;;;;;;;;16.91;55.98;100486.00;4994581;28;6973;-74
2023/08/08 01:21:30;;;;;;;;;;;;;;;16.90;56.10;100489.38;4999402;28;6816;-76
2023/08/08 01:24:18;;;;;;;;;;;;;;;16.89;56.41;100490.22;5002364;28;7503;-74
2023/08/08 01:26:45;;;;;;;;;;;;;;;16.87;56.69;100492.81;4994829;28;7146;-74
2023/08/08 01:29:10;;;;;;;;;;;;;;;16.86;56.34;100491.06;4993948;28;6837;-74
2023/08/08 01:31:36;;;;;;;;;;;;;;;16.85;56.30;100494.50;4997441;28;6788;-74
2023/08/08 01:34:01;;;;;;;;;;;;;;;16.81;56.80;100492.66;4993751;28;6848;-74
2023/08/08 01:36:50;;;;;;;;;;;;;;;16.80;56.72;100499.56;4980120;28;7211;-73
2023/08/08 01:39:20;;;;;;;;;;;;;;;16.78;56.63;100488.25;4999344;28;6891;-73
2023/08/08 01:41:48;;;;;;;;;;;;;;;16.78;56.75;100497.75;4999873;28;7090;-72
2023/08/08 01:44:13;;;;;;;;;;;;;;;16.76;56.45;100492.53;4992925;28;6799;-74
2023/08/08 01:46:40;;;;;;;;;;;;;;;16.75;56.75;100493.38;4991658;28;6779;-76
2023/08/08 01:49:05;;;;;;;;;;;;;;;16.73;56.70;100489.00;4987546;28;6811;-74
2023/08/08 01:51:31;;;;;;;;;;;;;;;16.70;57.07;100492.38;4993853;28;6796;-74
2023/08/08 01:53:56;;;;;;;;;;;;;;;16.71;57.03;100491.56;4992182;28;6783;-74
2023/08/08 01:56:22;;;;;;;;;;;;;;;16.71;57.23;100486.38;4994929;28;6904;-72
2023/08/08 01:58:47;;;;;;;;;;;;;;;16.72;57.22;100472.59;5000811;28;6918;-76
2023/08/08 02:01:13;;;;;;;;;;;;;;;16.74;57.18;100478.69;4998680;28;6792;-74
2023/08/08 02:03:38;;;;;;;;;;;;;;;16.76;57.46;100478.75;4992563;28;6983;-75
2023/08/08 02:06:04;;;;;;;;;;;;;;;16.77;57.66;100475.31;4998467;28;6850;-73
2023/08/08 02:08:29;;;;;;;;;;;;;;;16.77;57.49;100470.13;4994053;28;6784;-75
2023/08/08 02:10:55;;;;;;;;;;;;;;;16.79;57.57;100474.47;4991517;28;6942;-74
2023/08/08 02:13:20;;;;;;;;;;;;;;;16.80;57.15;100476.25;4992639;28;7133;-74
2023/08/08 02:15:46;;;;;;;;;;;;;;;16.79;57.57;100474.47;4992482;28;6796;-72
2023/08/08 02:18:12;;;;;;;;;;;;;;;16.78;56.99;100477.91;4997899;28;6812;-74
2023/08/08 02:20:37;;;;;;;;;;;;;;;16.77;57.36;100467.53;4985784;28;6819;-75
2023/08/08 02:23:03;;;;;;;;;;;;;;;16.74;57.27;100470.94;4981235;28;6941;-74
2023/08/08 02:25:29;;;;;;;;;;;;;;;16.72;57.26;100470.03;4992671;28;6791;-75
2023/08/08 02:27:54;;;;;;;;;;;;;;;16.68;57.27;100465.59;4998537;28;6800;-74
2023/08/08 02:30:19;;;;;;;;;;;;;;;16.66;57.32;100463.00;4997832;28;7075;-73
2023/08/08 02:32:45;;;;;;;;;;;;;;;16.63;57.64;100467.22;4982845;28;6927;-74
2023/08/08 02:35:11;;;;;;;;;;;;;;;16.60;57.78;100468.00;4997981;28;6932;-73
2023/08/08 02:37:37;;;;;;;;;;;;;;;16.58;57.75;100458.44;4983637;28;7163;-74
2023/08/08 02:40:03;;;;;;;;;;;;;;;16.56;57.79;100452.38;4994234;28;7112;-73
2023/08/08 02:42:29;;;;;;;;;;;;;;;16.52;58.04;100449.72;4997470;28;7084;-73
2023/08/08 02:44:54;;;;;;;;;;;;;;;16.53;58.30;100450.56;4998950;28;6807;-76
2023/08/08 02:47:20;;;;;;;;;;;;;;;16.54;58.33;100441.13;4992594;28;6839;-74
2023/08/08 02:49:46;;;;;;;;;;;;;;;16.52;58.12;100431.59;4979681;28;6873;-75
2023/08/08 02:52:14;;;;;;;;;;;;;;;16.55;58.72;100432.50;4996038;28;6815;-71
2023/08/08 02:54:40;;;;;;;;;;;;;;;16.55;58.75;100433.38;5001376;28;6966;-73
2023/08/08 02:57:05;;;;;;;;;;;;;;;16.58;59.02;100432.56;4994937;28;6875;-73
2023/08/08 02:59:30;;;;;;;;;;;;;;;16.58;58.71;100437.75;4997501;28;7200;-73
2023/08/08 03:01:56;;;;;;;;;;;;;;;16.59;58.97;100434.31;4997648;28;6836;-73
2023/08/08 03:04:21;;;;;;;;;;;;;;;16.59;58.91;100434.31;4989271;28;6797;-73
2023/08/08 03:06:47;;;;;;;;;;;;;;;16.58;58.73;100437.75;5015019;28;6926;-73
2023/08/08 03:09:12;;;;;;;;;;;;;;;16.57;58.72;100431.72;4989933;28;7231;-73
2023/08/08 03:11:41;;;;;;;;;;;;;;;16.59;59.06;100423.97;4999092;28;7074;-73
2023/08/08 03:14:07;;;;;;;;;;;;;;;16.61;59.35;100417.13;4997743;28;6804;-73
2023/08/08 03:16:33;;;;;;;;;;;;;;;16.63;59.36;100416.31;4998718;28;6856;-73
2023/08/08 03:18:58;;;;;;;;;;;;;;;16.66;59.60;100421.59;4992587;28;6943;-73
2023/08/08 03:21:24;;;;;;;;;;;;;;;16.70;59.24;100419.91;4992859;28;6939;-73
2023/08/08 03:23:49;;;;;;;;;;;;;;;16.77;59.37;100428.72;4986469;28;7166;-73
2023/08/08 03:26:15;;;;;;;;;;;;;;;16.83;59.53;100422.81;4990416;28;6840;-73
2023/08/08 03:28:40;;;;;;;;;;;;;;;16.88;59.27;100423.78;4998458;28;6775;-73
2023/08/08 03:31:06;;;;;;;;;;;;;;;16.95;59.84;100425.66;4996667;28;8364;-73
2023/08/08 03:33:32;;;;;;;;;;;;;;;17.02;59.77;100424.09;4993189;28;7522;-74
2023/08/08 03:35:58;;;;;;;;;;;;;;;17.08;59.86;100424.25;5009066;28;6935;-73
2023/08/08 03:38:23;;;;;;;;;;;;;;;17.11;59.58;100413.09;4990079;28;6962;-73
2023/08/08 03:40:49;;;;;;;;;;;;;;;17.13;59.65;100417.44;4989143;28;7188;-72
2023/08/08 03:43:14;;;;;;;;;;;;;;;17.14;59.73;100415.75;4985179;28;8048;-73
2023/08/08 03:45:40;;;;;;;;;;;;;;;17.15;59.28;100399.34;4990903;28;7116;-73
2023/08/08 03:48:05;;;;;;;;;;;;;;;17.20;59.81;100408.13;4989702;28;7619;-72
2023/08/08 03:50:31;;;;;;;;;;;;;;;17.24;60.01;100406.44;4999284;28;7427;-72
2023/08/08 03:52:56;;;;;;;;;;;;;;;17.28;59.93;100403.09;5012530;28;7251;-73
2023/08/08 03:55:22;;;;;;;;;;;;;;;17.32;60.00;100412.66;4985084;28;7970;-74
2023/08/08 03:57:47;;;;;;;;;;;;;;;17.34;59.10;100400.63;4979777;28;8021;-73
2023/08/08 04:00:13;;;;;;;;;;;;;;;17.34;59.99;100400.63;4989036;28;7889;-73
2023/08/08 04:02:38;;;;;;;;;;;;;;;17.32;59.78;100403.19;4966495;28;7532;-73
2023/08/08 04:05:04;;;;;;;;;;;;;;;17.32;59.48;100407.47;4982036;28;7860;-72
2023/08/08 04:07:30;;;;;;;;;;;;;;;17.35;59.80;100411.00;4991828;28;8002;-72
2023/08/08 04:09:55;;;;;;;;;;;;;;;17.39;60.15;100404.16;4988311;28;7122;-73
2023/08/08 04:12:21;;;;;;;;;;;;;;;17.43;59.68;100420.66;4995514;28;7648;-73
2023/08/08 04:14:46;;;;;;;;;;;;;;;17.46;59.93;100405.16;5000932;28;6804;-73
2023/08/08 04:17:12;;;;;;;;;;;;;;;17.49;59.93;100408.69;4992678;28;6776;-73
2023/08/08 04:19:38;;;;;;;;;;;;;;;17.49;59.85;100405.25;4992782;28;7705;-73
2023/08/08 04:22:03;;;;;;;;;;;;;;;17.45;59.27;100408.59;4990747;28;7707;-73
2023/08/08 04:24:29;;;;;;;;;;;;;;;17.43;59.78;100410.28;4989200;28;8116;-73
2023/08/08 04:26:54;;;;;;;;;;;;;;;17.40;59.66;100410.25;4986781;28;7726;-73
2023/08/08 04:29:20;;;;;;;;;;;;;;;17.39;59.42;100413.69;4978427;28;7768;-73
2023/08/08 04:31:45;;;;;;;;;;;;;;;17.40;59.47;100408.50;4990574;28;7743;-74
2023/08/08 04:34:11;;;;;;;;;;;;;;;17.46;60.00;100415.53;4987350;28;7772;-73
2023/08/08 04:36:36;;;;;;;;;;;;;;;17.52;60.34;100410.47;4987841;28;7841;-73
2023/08/08 04:39:02;;;;;;;;;;;;;;;17.57;60.14;100411.41;4990069;28;8546;-73
2023/08/08 04:41:27;;;;;;;;;;;;;;;17.65;59.63;100410.69;4990776;28;7273;-73
2023/08/08 04:43:53;;;;;;;;;;;;;;;17.69;59.45;100407.34;4980376;28;7670;-73
2023/08/08 04:46:18;;;;;;;;;;;;;;;17.71;59.51;100413.41;4987913;28;7725;-73
2023/08/08 04:48:44;;;;;;;;;;;;;;;17.73;59.51;100416.91;4991396;28;7760;-72
2023/08/08 04:51:09;;;;;;;;;;;;;;;17.77;59.35;100403.19;4985165;28;6980;-72
2023/08/08 04:53:35;;;;;;;;;;;;;;;17.79;59.37;100398.88;4978430;28;6978;-72
2023/08/08 04:56:00;;;;;;;;;;;;;;;17.80;59.41;100395.44;4987372;28;7790;-72
2023/08/08 04:58:26;;;;;;;;;;;;;;;17.77;59.41;100401.44;4984105;28;7981;-73
2023/08/08 05:00:52;;;;;;;;;;;;;;;17.76;59.19;100388.44;4987871;28;8317;-72
2023/08/08 05:03:18;;;;;;;;;;;;;;;17.73;59.82;100393.56;4993013;28;6979;-72
2023/08/08 05:05:46;;;;;;;;;;;;;;;17.77;59.59;100396.25;4995903;28;6775;-73
2023/08/08 05:08:13;;;;;;;;;;;;;;;17.87;60.38;100393.84;4988900;28;8225;-73
2023/08/08 05:10:39;;;;;;;;;;;;;;;18.02;60.14;100395.81;4991421;28;7043;-73
2023/08/08 05:13:04;;;;;;;;;;;;;;;18.18;60.08;100403.06;4989938;28;6791;-73
2023/08/08 05:15:29;;;;;;;;;;;;;;;18.37;60.72;100403.34;4976143;28;7025;-73
2023/08/08 05:17:55;;;;;;;;;;;;;;;18.56;59.58;100408.84;5008549;28;6843;-72
2023/08/08 05:20:21;;;;;;;;;;;;;;;18.63;59.02;100397.66;4993139;28;7233;-72
2023/08/08 05:22:47;;;;;;;;;;;;;;;18.65;58.95;100406.38;4983828;28;6788;-72
2023/08/08 05:25:13;;;;;;;;;;;;;;;18.71;58.64;100400.41;5002274;28;6979;-72
2023/08/08 05:27:39;;;;;;;;;;;;;;;18.71;57.72;100384.81;4989391;28;6775;-73
2023/08/08 05:30:05;;;;;;;;;;;;;;;18.67;57.52;100398.59;4988385;28;7143;-72
2023/08/08 05:32:30;;;;;;;;;;;;;;;18.61;58.20;100391.59;4994619;28;7170;-73
2023/08/08 05:34:57;;;;;;;;;;;;;;;18.59;57.66;100398.50;5007889;28;6852;-73
2023/08/08 05:37:26;;;;;;;;;;;;;;;18.57;57.55;100385.47;4970215;28;7142;-73
2023/08/08 05:39:52;;;;;;;;;;;;;;;18.56;57.85;100393.25;4990428;28;7026;-73
2023/08/08 05:42:17;;;;;;;;;;;;;;;18.57;57.95;100392.41;4991999;28;7126;-72
2023/08/08 05:44:43;;;;;;;;;;;;;;;18.58;57.70;100397.59;4988554;28;6971;-73
2023/08/08 05:47:09;;;;;;;;;;;;;;;18.63;58.35;100397.66;4985355;28;7738;-72
2023/08/08 05:49:34;;;;;;;;;;;;;;;18.73;57.95;100398.69;4992372;28;7162;-73
2023/08/08 05:52:00;;;;;;;;;;;;;;;18.78;57.71;100396.16;4973678;28;7652;-73
2023/08/08 05:54:25;;;;;;;;;;;;;;;18.78;57.13;100403.94;4997188;28;6780;-73
2023/08/08 05:56:51;;;;;;;;;;;;;;;18.77;56.81;100405.66;4995507;28;6855;-73
2023/08/08 05:59:16;;;;;;;;;;;;;;;18.77;57.60;100402.22;4976321;28;6926;-73
2023/08/08 06:01:42;;;;;;;;;;;;;;;18.80;57.51;100410.03;4991300;28;7471;-73
2023/08/08 06:04:07;;;;;;;;;;;;;;;18.82;57.31;100417.00;4973820;28;7207;-73
2023/08/08 06:06:33;;;;;;;;;;;;;;;18.86;57.12;100417.91;4985934;28;6968;-72
2023/08/08 06:08:58;;;;;;;;;;;;;;;18.91;57.88;100413.66;4999100;28;7889;-73
2023/08/08 06:11:24;;;;;;;;;;;;;;;18.95;57.36;100412.84;4976902;28;7107;-73
2023/08/08 06:13:49;;;;;;;;;;;;;;;18.97;57.43;100412.84;5012639;28;6914;-73
2023/08/08 06:16:15;;;;;;;;;;;;;;;19.02;57.61;100413.84;4998615;28;6918;-73
2023/08/08 06:18:41;;;;;;;;;;;;;;;19.10;57.44;100417.41;5010740;28;7742;-73
2023/08/08 06:21:07;;;;;;;;;;;;;;;19.20;57.59;100417.53;4994600;28;7431;-74
2023/08/08 06:23:32;;;;;;;;;;;;;;;19.28;57.68;100423.72;4994186;28;7303;-72
2023/08/08 06:25:58;;;;;;;;;;;;;;;19.36;57.00;100418.59;4993504;28;6808;-72
2023/08/08 06:28:23;;;;;;;;;;;;;;;19.41;56.74;100422.09;4996866;28;7853;-73
2023/08/08 06:30:49;;;;;;;;;;;;;;;19.49;56.76;100425.66;5005391;28;6799;-74
2023/08/08 06:33:14;;;;;;;;;;;;;;;19.54;56.85;100423.13;5010717;28;6847;-73
2023/08/08 06:35:40;;;;;;;;;;;;;;;19.56;56.75;100416.25;4985799;28;7461;-73
2023/08/08 06:38:05;;;;;;;;;;;;;;;19.59;56.74;100415.38;5012299;28;7262;-73
2023/08/08 06:40:31;;;;;;;;;;;;;;;19.63;56.72;100432.78;5003010;28;6923;-73
2023/08/08 06:42:56;;;;;;;;;;;;;;;19.70;56.86;100425.03;5001235;28;6838;-73
2023/08/08 06:45:21;;;;;;;;;;;;;;;19.82;56.67;100434.72;5004980;28;7005;-73
2023/08/08 06:47:48;;;;;;;;;;;;;;;19.94;56.40;100423.59;5003538;28;7049;-73
2023/08/08 06:50:14;;;;;;;;;;;;;;;20.07;56.68;100429.75;5015633;28;7083;-74
2023/08/08 06:52:39;;;;;;;;;;;;;;;20.19;56.31;100412.53;4995781;28;6780;-74
2023/08/08 06:55:05;;;;;;;;;;;;;;;20.26;56.10;100420.41;4995437;28;7152;-74
2023/08/08 06:57:33;;;;;;;;;;;;;;;20.34;55.96;100423.06;4997343;28;7373;-73
2023/08/08 06:59:58;;;;;;;;;;;;;;;20.44;55.74;100423.13;4999405;28;6800;-73
2023/08/08 07:02:24;;;;;;;;;;;;;;;20.52;55.83;100424.06;5004257;28;7010;-74
2023/08/08 07:04:49;;;;;;;;;;;;;;;20.63;55.81;100429.38;4996705;28;6808;-73
2023/08/08 07:07:15;;;;;;;;;;;;;;;20.75;55.59;100425.94;4996267;28;6783;-73
2023/08/08 07:09:41;;;;;;;;;;;;;;;20.87;55.17;100425.19;4996744;28;6779;-73
2023/08/08 07:12:07;;;;;;;;;;;;;;;20.92;55.38;100421.75;5004903;28;6996;-74
2023/08/08 07:14:32;;;;;;;;;;;;;;;20.98;54.90;100422.66;4997904;28;7038;-74
2023/08/08 07:16:58;;;;;;;;;;;;;;;21.06;54.63;100419.22;5011363;28;6787;-73
2023/08/08 07:19:24;;;;;;;;;;;;;;;21.10;54.42;100412.28;4996018;28;6779;-74
2023/08/08 07:21:50;;;;;;;;;;;;;;;21.13;54.48;100414.91;4993854;28;7023;-74
2023/08/08 07:24:16;;;;;;;;;;;;;;;21.20;54.70;100416.69;4991584;28;7410;-73
2023/08/08 07:26:41;;;;;;;;;;;;;;;21.34;54.56;100418.47;5004624;28;7758;-73
2023/08/08 07:29:06;;;;;;;;;;;;;;;21.51;54.10;100421.16;4993617;28;6847;-74
2023/08/08 07:31:33;;;;;;;;;;;;;;;21.57;53.89;100415.94;4992716;28;6787;-73
2023/08/08 07:33:59;;;;;;;;;;;;;;;21.57;53.26;100412.47;4991123;28;7098;-73
2023/08/08 07:36:24;;;;;;;;;;;;;;;21.60;53.25;100407.25;4994698;28;6780;-73
2023/08/08 07:38:50;;;;;;;;;;;;;;;21.63;53.40;100409.84;4992212;28;6863;-73
2023/08/08 07:41:15;;;;;;;;;;;;;;;21.62;53.58;100409.00;4992922;28;7202;-73
2023/08/08 07:43:41;;;;;;;;;;;;;;;21.56;52.88;100422.00;4990189;28;6820;-72
2023/08/08 07:46:07;;;;;;;;;;;;;;;21.49;53.12;100408.09;4992292;28;6804;-73
2023/08/08 07:48:32;;;;;;;;;;;;;;;21.42;52.66;100406.31;4994755;28;6999;-73
2023/08/08 07:50:58;;;;;;;;;;;;;;;21.40;53.29;100417.63;4982411;28;7034;-73
2023/08/08 07:53:23;;;;;;;;;;;;;;;21.46;53.53;100409.81;5007473;28;6855;-73
2023/08/08 07:55:49;;;;;;;;;;;;;;;21.59;53.79;100410.72;4995560;28;7194;-73
2023/08/08 07:58:14;;;;;;;;;;;;;;;21.70;53.31;100416.00;4994315;28;6862;-73
2023/08/08 08:00:40;;;;;;;;;;;;;;;21.80;52.98;100417.78;4990605;28;7471;-74
2023/08/08 08:03:06;;;;;;;;;;;;;;;21.91;52.81;100415.16;4992198;28;6856;-73
2023/08/08 08:05:32;;;;;;;;;;;;;;;21.97;52.61;100417.78;5005376;28;7776;-73
2023/08/08 08:07:57;;;;;;;;;;;;;;;22.01;52.22;100414.28;4991991;28;7150;-73
2023/08/08 08:10:23;;;;;;;;;;;;;;;22.06;52.40;100409.97;5001952;28;7214;-73
2023/08/08 08:12:48;;;;;;;;;;;;;;;22.18;52.84;100403.88;5009563;28;7038;-73
2023/08/08 08:15:14;;;;;;;;;;;;;;;22.31;52.60;100398.66;4995546;28;6787;-73
2023/08/08 08:17:39;;;;;;;;;;;;;;;22.41;52.35;100405.59;5000951;28;7363;-73
2023/08/08 08:20:10;;;;;;;;;;;;;;;22.49;51.68;100403.00;4993717;28;10571;-72
2023/08/08 08:22:36;;;;;;;;;;;;;;;22.57;51.71;100398.66;4994647;28;6835;-73
2023/08/08 08:25:02;;;;;;;;;;;;;;;22.73;51.93;100396.03;4999663;28;6992;-73
2023/08/08 08:27:27;;;;;;;;;;;;;;;22.90;51.57;100403.81;4999758;28;6839;-73
2023/08/08 08:29:53;;;;;;;;;;;;;;;23.05;51.13;100397.66;4992942;28;6931;-73
2023/08/08 08:32:18;;;;;;;;;;;;;;;23.22;50.92;100409.78;5000373;28;7305;-73
2023/08/08 08:34:44;;;;;;;;;;;;;;;23.33;50.77;100408.03;4994011;28;7890;-73
2023/08/08 08:37:09;;;;;;;;;;;;;;;23.42;50.00;100396.66;4996871;28;7347;-73
2023/08/08 08:39:35;;;;;;;;;;;;;;;23.53;50.48;100400.09;4983921;28;7286;-73
2023/08/08 08:42:04;;;;;;;;;;;;;;;23.67;49.62;100406.97;4995191;28;6947;-73
2023/08/08 08:44:34;;;;;;;;;;;;;;;23.81;49.39;100396.41;4999583;28;7055;-73
2023/08/08 08:47:02;;;;;;;;;;;;;;;23.96;49.50;100398.94;4995106;28;6883;-73
2023/08/08 08:49:31;;;;;;;;;;;;;;;24.09;48.82;100404.09;4990771;28;6820;-73
2023/08/08 08:52:02;;;;;;;;;;;;;;;24.11;48.27;100412.81;4972163;28;6975;-73
2023/08/08 08:54:29;;;;;;;;;;;;;;;24.03;48.01;100399.75;4990855;28;7220;-73
2023/08/08 08:56:56;;;;;;;;;;;;;;;23.87;47.29;100406.84;4981960;28;7052;-73
2023/08/08 08:59:21;;;;;;;;;;;;;;;23.68;47.27;100406.97;4997031;28;6800;-73
2023/08/08 09:01:47;;;;;;;;;;;;;;;23.54;47.72;100407.06;4993337;28;7201;-74
2023/08/08 09:04:17;;;;;;;;;;;;;;;23.40;47.56;100411.47;4986259;28;6840;-73
2023/08/08 09:06:43;;;;;;;;;;;;;;;23.28;47.21;100415.91;4978385;28;7008;-74
2023/08/08 09:09:09;;;;;;;;;;;;;;;23.24;48.03;100419.38;4988396;28;6846;-73
2023/08/08 09:11:35;;;;;;;;;;;;;;;23.20;47.73;100415.03;4993072;28;6784;-74
2023/08/08 09:14:02;;;;;;;;;;;;;;;23.19;47.83;100409.81;5001863;28;6780;-73
2023/08/08 09:16:27;;;;;;;;;;;;;;;23.24;48.23;100411.53;4977003;28;7359;-74
2023/08/08 09:18:53;;;;;;;;;;;;;;;23.44;48.55;100408.84;4988537;28;6952;-73
2023/08/08 09:21:18;;;;;;;;;;;;;;;23.71;47.96;100401.72;4995683;28;6944;-74
2023/08/08 09:23:44;;;;;;;;;;;;;;;23.95;47.92;100405.06;4995118;28;7218;-74
2023/08/08 09:26:10;;;;;;;;;;;;;;;24.13;47.58;100401.44;4991140;28;7014;-73
2023/08/08 09:28:35;;;;;;;;;;;;;;;24.37;47.19;100409.09;4994669;28;6780;-74
2023/08/08 09:31:01;;;;;;;;;;;;;;;24.72;46.89;100402.63;4985775;28;7193;-74
2023/08/08 09:33:30;;;;;;;;;;;;;;;25.13;46.92;100405.69;4985992;28;6995;-73
2023/08/08 09:35:55;;;;;;;;;;;;;;;25.49;45.73;100405.22;4993010;28;7055;-73
2023/08/08 09:38:21;;;;;;;;;;;;;;;25.73;45.37;100397.94;4983133;28;7974;-74
2023/08/08 09:40:46;;;;;;;;;;;;;;;25.91;44.96;100395.03;4978243;28;6787;-74
2023/08/08 09:43:12;;;;;;;;;;;;;;;26.02;44.24;100392.19;4995181;28;6851;-74
2023/08/08 09:45:39;;;;;;;;;;;;;;;26.05;43.86;100389.56;4981539;28;7208;-74
2023/08/08 09:48:06;;;;;;;;;;;;;;;26.05;44.10;100386.03;4979194;28;7254;-74
2023/08/08 09:50:33;;;;;;;;;;;;;;;26.05;43.87;100384.28;4980055;28;7377;-74
2023/08/08 09:52:59;;;;;;;;;;;;;;;26.08;43.67;100393.88;4974201;28;7132;-73
2023/08/08 09:55:25;;;;;;;;;;;;;;;26.11;43.24;100390.31;4973995;28;7748;-73
2023/08/08 09:57:52;;;;;;;;;;;;;;;26.09;42.84;100392.13;4994850;28;7057;-75
2023/08/08 10:00:20;;;;;;;;;;;;;;;26.00;42.66;100388.75;4977843;28;6997;-75
2023/08/08 10:02:46;;;;;;;;;;;;;;;25.76;42.11;100396.13;4998785;28;6856;-75
2023/08/08 10:05:14;;;;;;;;;;;;;;;25.50;42.79;100396.53;4996692;28;6808;-74
2023/08/08 10:07:43;;;;;;;;;;;;;;;25.23;42.73;100406.47;4988172;28;6804;-75
2023/08/08 10:10:09;;;;;;;;;;;;;;;24.96;42.88;100403.28;4994769;28;6820;-75
2023/08/08 10:12:37;;;;;;;;;;;;;;;24.71;42.89;100403.50;4978778;28;7138;-75
2023/08/08 10:15:08;;;;;;;;;;;;;;;24.51;43.18;100401.97;4968014;28;7002;-74
2023/08/08 10:17:41;;;;;;;;;;;;;;;24.39;43.18;100402.09;4965177;28;7247;-74
2023/08/08 10:20:11;;;;;;;;;;;;;;;24.28;43.22;100396.94;4997777;28;6812;-75
2023/08/08 10:22:42;;;;;;;;;;;;;;;24.14;43.87;100404.91;4987097;28;6812;-75
2023/08/08 10:25:08;;;;;;;;;;;;;;;23.97;43.28;100402.41;4981425;28;6814;-74
2023/08/08 10:27:35;;;;;;;;;;;;;;;23.82;43.69;100395.53;4985495;28;6944;-75
2023/08/08 10:30:04;;;;;;;;;;;;;;;23.78;44.34;100393.84;4984529;28;7113;-75
2023/08/08 10:32:42;;;;;;;;;;;;;;;23.84;43.95;100396.38;4968774;28;7051;-73
2023/08/08 10:35:10;;;;;;;;;;;;;;;23.97;44.36;100394.56;4976996;28;6887;-73
2023/08/08 10:37:37;;;;;;;;;;;;;;;24.14;44.33;100386.59;4967619;28;6996;-75
2023/08/08 10:40:05;;;;;;;;;;;;;;;24.29;44.11;100390.84;4987913;28;6800;-73
2023/08/08 10:42:31;;;;;;;;;;;;;;;24.43;43.44;100395.94;5018881;28;6799;-72
2023/08/08 10:44:59;;;;;;;;;;;;;;;24.61;43.41;100388.78;4995541;28;6959;-75
2023/08/08 10:47:34;;;;;;;;;;;;;;;24.71;43.24;100382.56;4971677;28;7007;-75
2023/08/08 10:50:14;;;;;;;;;;;;;;;24.79;42.94;100379.91;4999234;28;6854;-74
2023/08/08 10:52:55;;;;;;;;;;;;;;;24.86;43.19;100385.94;4963503;28;7359;-74
2023/08/08 10:55:23;;;;;;;;;;;;;;;24.90;42.45;100378.00;4993299;28;7295;-75
2023/08/08 10:57:54;;;;;;;;;;;;;;;24.94;42.82;100384.94;4996736;28;6815;-73
2023/08/08 11:00:21;;;;;;;;;;;;;;;25.04;42.99;100379.59;4993513;28;6997;-74
2023/08/08 11:02:46;;;;;;;;;;;;;;;25.20;42.42;100386.38;4972860;28;6807;-74
2023/08/08 11:05:12;;;;;;;;;;;;;;;25.45;42.38;100374.69;4978093;28;6772;-73
2023/08/08 11:07:38;;;;;;;;;;;;;;;25.65;41.71;100385.78;4995150;28;6796;-75
2023/08/08 11:10:04;;;;;;;;;;;;;;;25.83;41.55;100390.75;4993642;28;8252;-75
2023/08/08 11:12:29;;;;;;;;;;;;;;;25.95;41.32;100392.34;4985072;28;7349;-73
2023/08/08 11:14:55;;;;;;;;;;;;;;;26.10;41.19;100378.97;4977216;28;6882;-74
2023/08/08 11:17:20;;;;;;;;;;;;;;;26.24;40.65;100370.88;4993463;28;7309;-74
2023/08/08 11:19:46;;;;;;;;;;;;;;;26.39;40.57;100379.38;4969248;28;6958;-74
2023/08/08 11:22:11;;;;;;;;;;;;;;;26.61;40.55;100378.09;4995507;28;6840;-73
2023/08/08 11:24:37;;;;;;;;;;;;;;;26.86;40.17;100376.75;4978886;28;7078;-74
2023/08/08 11:27:02;;;;;;;;;;;;;;;27.20;40.44;100368.16;4979566;28;6776;-76
2023/08/08 11:29:30;;;;;;;;;;;;;;;27.55;39.63;100361.28;4996005;28;6835;-75
2023/08/08 11:31:59;;;;;;;;;;;;;;;27.59;38.79;100375.22;4979025;28;7090;-74
2023/08/08 11:34:27;;;;;;;;;;;;;;;27.38;38.53;100363.38;4995331;28;7040;-75
2023/08/08 11:36:54;;;;;;;;;;;;;;;27.09;38.46;100372.78;4983442;28;6823;-76
2023/08/08 11:39:20;;;;;;;;;;;;;;;26.76;38.82;100369.03;4980481;28;7261;-74
2023/08/08 11:41:46;;;;;;;;;;;;;;;26.50;38.88;100369.53;4971092;28;6767;-73
2023/08/08 11:44:12;;;;;;;;;;;;;;;26.45;39.63;100374.00;4975761;28;6780;-76
2023/08/08 11:46:45;;;;;;;;;;;;;;;26.65;39.63;100363.09;4980711;28;6805;-74
2023/08/08 11:49:14;;;;;;;;;;;;;;;27.17;38.96;100363.81;4977582;28;8027;-75
2023/08/08 11:51:39;;;;;;;;;;;;;;;27.61;38.47;100357.63;4978873;28;6871;-75
2023/08/08 11:54:05;;;;;;;;;;;;;;;27.82;38.44;100361.53;4987042;28;7015;-75
2023/08/08 11:56:33;;;;;;;;;;;;;;;27.70;37.67;100373.22;4973928;28;6811;-74
2023/08/08 11:58:59;;;;;;;;;;;;;;;27.39;38.15;100378.28;4979716;28;6994;-74
2023/08/08 12:01:26;;;;;;;;;;;;;;;26.99;38.04;100370.34;4991155;28;6856;-75
2023/08/08 12:03:53;;;;;;;;;;;;;;;26.55;38.35;100372.94;4989431;28;6937;-74
2023/08/08 12:06:20;;;;;;;;;;;;;;;26.12;38.63;100377.19;4973625;28;6979;-70
2023/08/08 12:08:46;;;;;;;;;;;;;;;25.71;38.99;100379.56;4977295;28;7183;-69
2023/08/08 12:11:13;;;;;;;;;;;;;;;25.36;39.72;100381.78;4995288;28;6799;-70
2023/08/08 12:13:41;;;;;;;;;;;;;;;25.03;39.96;100386.59;4995343;28;6812;-70
2023/08/08 12:16:09;;;;;;;;;;;;;;;24.73;39.94;100385.16;4983612;28;7063;-72
2023/08/08 12:18:37;;;;;;;;;;;;;;;24.45;40.55;100381.09;4990321;28;7259;-72
2023/08/08 12:21:06;;;;;;;;;;;;;;;24.29;41.12;100385.63;4991940;28;6883;-70
2023/08/08 12:23:33;;;;;;;;;;;;;;;24.20;41.09;100376.06;4990717;28;7192;-73
2023/08/08 12:25:59;;;;;;;;;;;;;;;24.17;41.63;100376.09;4967804;28;7959;-72
2023/08/08 12:28:25;;;;;;;;;;;;;;;24.13;41.90;100372.66;4980318;28;6883;-72
2023/08/08 12:30:50;;;;;;;;;;;;;;;24.10;41.73;100379.66;4992075;28;6783;-71
2023/08/08 12:33:16;;;;;;;;;;;;;;;24.04;42.03;100379.66;4993308;28;6792;-69
2023/08/08 12:35:41;;;;;;;;;;;;;;;23.96;42.05;100366.66;4993845;28;6784;-72
2023/08/08 12:38:07;;;;;;;;;;;;;;;23.89;42.04;100367.56;4991586;28;6976;-71
2023/08/08 12:40:33;;;;;;;;;;;;;;;23.81;42.38;100368.53;4974506;28;7024;-71
2023/08/08 12:42:59;;;;;;;;;;;;;;;23.68;41.65;100375.59;4990640;28;6796;-72